sensor_id;sensor_type;location;lat;lon;timestamp;P1;durP1;ratioP1;P2;durP2;ratioP2
19645;SDS011;9971;52.446;13.452;2022-08-19T00:04:33;0.75;;;0.75;;
19645;SDS011;9971;52.446;13.452;2022-08-19T00:09:34;2.73;;;2.53;;
19645;SDS011;9971;52.446;13.452;2022-08-19T00:14:36;1.10;;;1.10;;
19645;SDS011;9971;52.446;13.452;2022-08-19T00:19:38;0.63;;;0.63;;
19645;SDS011;9971;52.446;13.452;2022-08-19T00:24:40;0.50;;;0.50;;
19645;SDS011;9971;52.446;13.452;2022-08-19T00:29:42;0.65;;;0.65;;
19645;SDS011;9971;52.446;13.452;2022-08-19T00:34:45;0.80;;;0.80;;
19645;SDS011;9971;52.446;13.452;2022-08-19T00:39:47;0.88;;;0.88;;
19645;SDS011;9971;52.446;13.452;2022-08-19T00:44:49;0.70;;;0.70;;
19645;SDS011;9971;52.446;13.452;2022-08-19T00:49:54;0.65;;;0.65;;
19645;SDS011;9971;52.446;13.452;2022-08-19T00:54:54;0.73;;;0.73;;
19645;SDS011;9971;52.446;13.452;2022-08-19T00:59:56;0.67;;;0.67;;
19645;SDS011;9971;52.446;13.452;2022-08-19T01:04:59;0.90;;;0.90;;
19645;SDS011;9971;52.446;13.452;2022-08-19T01:10:00;0.97;;;0.97;;
19645;SDS011;9971;52.446;13.452;2022-08-19T01:15:03;0.60;;;0.60;;
19645;SDS011;9971;52.446;13.452;2022-08-19T01:20:05;0.70;;;0.70;;
19645;SDS011;9971;52.446;13.452;2022-08-19T01:25:07;0.90;;;0.90;;
19645;SDS011;9971;52.446;13.452;2022-08-19T01:30:11;0.83;;;0.83;;
19645;SDS011;9971;52.446;13.452;2022-08-19T01:35:13;0.70;;;0.70;;
19645;SDS011;9971;52.446;13.452;2022-08-19T01:40:15;2.77;;;2.60;;
19645;SDS011;9971;52.446;13.452;2022-08-19T01:45:17;3.30;;;3.07;;
19645;SDS011;9971;52.446;13.452;2022-08-19T01:50:18;1.05;;;1.05;;
19645;SDS011;9971;52.446;13.452;2022-08-19T01:55:21;0.60;;;0.60;;
19645;SDS011;9971;52.446;13.452;2022-08-19T02:00:23;4.03;;;3.72;;
19645;SDS011;9971;52.446;13.452;2022-08-19T02:05:25;3.85;;;3.65;;
19645;SDS011;9971;52.446;13.452;2022-08-19T02:10:27;4.40;;;3.98;;
19645;SDS011;9971;52.446;13.452;2022-08-19T02:15:29;5.17;;;4.78;;
19645;SDS011;9971;52.446;13.452;2022-08-19T02:20:32;3.50;;;3.30;;
19645;SDS011;9971;52.446;13.452;2022-08-19T02:25:34;3.62;;;3.33;;
19645;SDS011;9971;52.446;13.452;2022-08-19T02:30:36;4.17;;;3.72;;
19645;SDS011;9971;52.446;13.452;2022-08-19T02:35:41;4.60;;;4.30;;
19645;SDS011;9971;52.446;13.452;2022-08-19T02:40:47;3.60;;;3.30;;
19645;SDS011;9971;52.446;13.452;2022-08-19T02:45:44;0.80;;;0.80;;
19645;SDS011;9971;52.446;13.452;2022-08-19T02:50:47;0.80;;;0.80;;
19645;SDS011;9971;52.446;13.452;2022-08-19T02:55:49;0.90;;;0.90;;
19645;SDS011;9971;52.446;13.452;2022-08-19T03:00:52;1.23;;;1.23;;
19645;SDS011;9971;52.446;13.452;2022-08-19T03:06:02;1.17;;;1.13;;
19645;SDS011;9971;52.446;13.452;2022-08-19T03:10:55;4.93;;;4.50;;
19645;SDS011;9971;52.446;13.452;2022-08-19T03:15:57;3.05;;;2.85;;
19645;SDS011;9971;52.446;13.452;2022-08-19T03:21:00;2.30;;;2.20;;
19645;SDS011;9971;52.446;13.452;2022-08-19T03:26:03;3.72;;;3.50;;
19645;SDS011;9971;52.446;13.452;2022-08-19T03:31:05;2.40;;;2.30;;
19645;SDS011;9971;52.446;13.452;2022-08-19T03:36:10;2.50;;;2.40;;
19645;SDS011;9971;52.446;13.452;2022-08-19T03:41:13;1.85;;;1.75;;
19645;SDS011;9971;52.446;13.452;2022-08-19T03:46:15;1.17;;;1.17;;
19645;SDS011;9971;52.446;13.452;2022-08-19T03:51:17;0.73;;;0.73;;
19645;SDS011;9971;52.446;13.452;2022-08-19T03:56:18;3.00;;;2.80;;
19645;SDS011;9971;52.446;13.452;2022-08-19T04:01:22;0.73;;;0.73;;
19645;SDS011;9971;52.446;13.452;2022-08-19T04:06:24;2.67;;;2.10;;
19645;SDS011;9971;52.446;13.452;2022-08-19T04:11:26;0.87;;;0.73;;
19645;SDS011;9971;52.446;13.452;2022-08-19T04:16:28;0.80;;;0.80;;
19645;SDS011;9971;52.446;13.452;2022-08-19T04:21:29;0.90;;;0.85;;
19645;SDS011;9971;52.446;13.452;2022-08-19T04:26:32;0.67;;;0.67;;
19645;SDS011;9971;52.446;13.452;2022-08-19T04:31:33;0.60;;;0.60;;
19645;SDS011;9971;52.446;13.452;2022-08-19T04:36:36;0.70;;;0.70;;
19645;SDS011;9971;52.446;13.452;2022-08-19T04:41:38;0.83;;;0.83;;
19645;SDS011;9971;52.446;13.452;2022-08-19T04:46:46;1.17;;;1.17;;
19645;SDS011;9971;52.446;13.452;2022-08-19T04:51:47;0.40;;;0.40;;
19645;SDS011;9971;52.446;13.452;2022-08-19T04:56:49;0.70;;;0.70;;
19645;SDS011;9971;52.446;13.452;2022-08-19T05:01:51;0.40;;;0.40;;
19645;SDS011;9971;52.446;13.452;2022-08-19T05:06:53;0.80;;;0.80;;
19645;SDS011;9971;52.446;13.452;2022-08-19T05:11:56;0.90;;;0.90;;
19645;SDS011;9971;52.446;13.452;2022-08-19T05:17:00;1.32;;;1.22;;
19645;SDS011;9971;52.446;13.452;2022-08-19T05:22:00;0.73;;;0.73;;
19645;SDS011;9971;52.446;13.452;2022-08-19T05:27:08;0.67;;;0.67;;
19645;SDS011;9971;52.446;13.452;2022-08-19T05:32:11;0.50;;;0.50;;
19645;SDS011;9971;52.446;13.452;2022-08-19T05:37:13;3.27;;;3.08;;
19645;SDS011;9971;52.446;13.452;2022-08-19T05:42:16;2.55;;;2.40;;
19645;SDS011;9971;52.446;13.452;2022-08-19T05:47:18;1.12;;;1.12;;
19645;SDS011;9971;52.446;13.452;2022-08-19T05:52:20;0.77;;;0.77;;
19645;SDS011;9971;52.446;13.452;2022-08-19T05:57:23;0.60;;;0.60;;
19645;SDS011;9971;52.446;13.452;2022-08-19T06:02:25;1.10;;;1.10;;
19645;SDS011;9971;52.446;13.452;2022-08-19T06:07:27;0.50;;;0.50;;
19645;SDS011;9971;52.446;13.452;2022-08-19T06:12:30;0.70;;;0.70;;
19645;SDS011;9971;52.446;13.452;2022-08-19T06:17:32;0.85;;;0.85;;
19645;SDS011;9971;52.446;13.452;2022-08-19T06:22:37;0.77;;;0.77;;
19645;SDS011;9971;52.446;13.452;2022-08-19T06:27:39;0.90;;;0.90;;
19645;SDS011;9971;52.446;13.452;2022-08-19T06:32:41;0.60;;;0.60;;
19645;SDS011;9971;52.446;13.452;2022-08-19T06:37:43;0.70;;;0.70;;
19645;SDS011;9971;52.446;13.452;2022-08-19T06:42:45;1.20;;;1.10;;
19645;SDS011;9971;52.446;13.452;2022-08-19T06:47:48;0.60;;;0.60;;
19645;SDS011;9971;52.446;13.452;2022-08-19T06:52:50;1.07;;;1.07;;
19645;SDS011;9971;52.446;13.452;2022-08-19T06:57:52;1.00;;;1.00;;
19645;SDS011;9971;52.446;13.452;2022-08-19T07:02:55;0.60;;;0.60;;
19645;SDS011;9971;52.446;13.452;2022-08-19T07:07:57;0.88;;;0.88;;
19645;SDS011;9971;52.446;13.452;2022-08-19T07:13:00;1.10;;;1.10;;
19645;SDS011;9971;52.446;13.452;2022-08-19T07:18:02;0.88;;;0.88;;
19645;SDS011;9971;52.446;13.452;2022-08-19T07:23:05;0.80;;;0.80;;
19645;SDS011;9971;52.446;13.452;2022-08-19T07:28:07;0.70;;;0.70;;
19645;SDS011;9971;52.446;13.452;2022-08-19T07:33:10;0.80;;;0.80;;
19645;SDS011;9971;52.446;13.452;2022-08-19T07:38:12;0.90;;;0.90;;
19645;SDS011;9971;52.446;13.452;2022-08-19T07:43:14;0.90;;;0.90;;
19645;SDS011;9971;52.446;13.452;2022-08-19T07:48:17;1.05;;;1.05;;
19645;SDS011;9971;52.446;13.452;2022-08-19T07:53:19;0.80;;;0.80;;
19645;SDS011;9971;52.446;13.452;2022-08-19T07:58:21;1.13;;;1.13;;
19645;SDS011;9971;52.446;13.452;2022-08-19T08:03:25;1.20;;;1.20;;
19645;SDS011;9971;52.446;13.452;2022-08-19T08:08:41;1.60;;;1.60;;
19645;SDS011;9971;52.446;13.452;2022-08-19T08:14:01;1.90;;;1.80;;
19645;SDS011;9971;52.446;13.452;2022-08-19T08:19:04;1.00;;;1.00;;
19645;SDS011;9971;52.446;13.452;2022-08-19T08:24:05;0.85;;;0.85;;
19645;SDS011;9971;52.446;13.452;2022-08-19T08:29:08;0.85;;;0.85;;
19645;SDS011;9971;52.446;13.452;2022-08-19T08:34:10;2.72;;;2.52;;
19645;SDS011;9971;52.446;13.452;2022-08-19T08:39:14;4.73;;;4.33;;
19645;SDS011;9971;52.446;13.452;2022-08-19T08:44:18;5.33;;;4.93;;
19645;SDS011;9971;52.446;13.452;2022-08-19T08:49:25;8.15;;;7.58;;
19645;SDS011;9971;52.446;13.452;2022-08-19T08:54:30;6.67;;;6.17;;
19645;SDS011;9971;52.446;13.452;2022-08-19T08:59:31;6.42;;;5.97;;
19645;SDS011;9971;52.446;13.452;2022-08-19T09:04:33;5.55;;;5.15;;
19645;SDS011;9971;52.446;13.452;2022-08-19T09:09:35;7.28;;;6.78;;
19645;SDS011;9971;52.446;13.452;2022-08-19T09:14:38;5.50;;;5.10;;
19645;SDS011;9971;52.446;13.452;2022-08-19T09:24:50;10.00;;;9.30;;
19645;SDS011;9971;52.446;13.452;2022-08-19T09:29:52;7.53;;;6.90;;
19645;SDS011;9971;52.446;13.452;2022-08-19T09:34:54;10.88;;;10.05;;
19645;SDS011;9971;52.446;13.452;2022-08-19T09:39:56;9.68;;;8.90;;
19645;SDS011;9971;52.446;13.452;2022-08-19T09:44:59;7.87;;;7.37;;
19645;SDS011;9971;52.446;13.452;2022-08-19T09:50:01;8.73;;;8.03;;
19645;SDS011;9971;52.446;13.452;2022-08-19T09:55:04;7.87;;;7.28;;
19645;SDS011;9971;52.446;13.452;2022-08-19T10:00:07;8.75;;;8.10;;
19645;SDS011;9971;52.446;13.452;2022-08-19T10:05:08;8.60;;;8.00;;
19645;SDS011;9971;52.446;13.452;2022-08-19T10:10:17;8.20;;;7.57;;
19645;SDS011;9971;52.446;13.452;2022-08-19T10:15:19;8.55;;;7.87;;
19645;SDS011;9971;52.446;13.452;2022-08-19T10:20:22;8.38;;;7.75;;
19645;SDS011;9971;52.446;13.452;2022-08-19T10:25:24;8.25;;;7.65;;
19645;SDS011;9971;52.446;13.452;2022-08-19T10:30:26;9.30;;;8.60;;
19645;SDS011;9971;52.446;13.452;2022-08-19T10:35:28;7.50;;;7.00;;
19645;SDS011;9971;52.446;13.452;2022-08-19T10:40:31;6.97;;;6.58;;
19645;SDS011;9971;52.446;13.452;2022-08-19T10:45:33;6.17;;;5.72;;
19645;SDS011;9971;52.446;13.452;2022-08-19T10:50:36;8.03;;;7.40;;
19645;SDS011;9971;52.446;13.452;2022-08-19T10:55:44;8.50;;;7.90;;
19645;SDS011;9971;52.446;13.452;2022-08-19T11:00:53;7.17;;;6.67;;
19645;SDS011;9971;52.446;13.452;2022-08-19T11:05:57;7.62;;;7.03;;
19645;SDS011;9971;52.446;13.452;2022-08-19T11:10:59;7.87;;;7.30;;
19645;SDS011;9971;52.446;13.452;2022-08-19T11:16:01;7.83;;;7.15;;
19645;SDS011;9971;52.446;13.452;2022-08-19T11:21:06;7.75;;;7.05;;
19645;SDS011;9971;52.446;13.452;2022-08-19T11:26:07;7.07;;;6.57;;
19645;SDS011;9971;52.446;13.452;2022-08-19T11:31:11;6.78;;;6.20;;
19645;SDS011;9971;52.446;13.452;2022-08-19T11:36:13;8.77;;;7.97;;
19645;SDS011;9971;52.446;13.452;2022-08-19T11:41:16;7.00;;;6.50;;
19645;SDS011;9971;52.446;13.452;2022-08-19T11:46:17;7.65;;;7.05;;
19645;SDS011;9971;52.446;13.452;2022-08-19T11:51:21;6.87;;;6.42;;
19645;SDS011;9971;52.446;13.452;2022-08-19T11:56:21;7.53;;;7.03;;
19645;SDS011;9971;52.446;13.452;2022-08-19T12:01:24;6.60;;;6.10;;
19645;SDS011;9971;52.446;13.452;2022-08-19T12:06:27;5.78;;;5.35;;
19645;SDS011;9971;52.446;13.452;2022-08-19T12:11:28;7.67;;;6.70;;
19645;SDS011;9971;52.446;13.452;2022-08-19T12:16:30;7.12;;;6.62;;
19645;SDS011;9971;52.446;13.452;2022-08-19T12:21:33;6.03;;;5.62;;
19645;SDS011;9971;52.446;13.452;2022-08-19T12:26:34;7.33;;;6.83;;
19645;SDS011;9971;52.446;13.452;2022-08-19T12:31:36;5.47;;;5.08;;
19645;SDS011;9971;52.446;13.452;2022-08-19T12:36:38;6.12;;;5.62;;
19645;SDS011;9971;52.446;13.452;2022-08-19T12:41:41;5.90;;;5.50;;
19645;SDS011;9971;52.446;13.452;2022-08-19T12:46:43;4.75;;;4.35;;
19645;SDS011;9971;52.446;13.452;2022-08-19T12:51:45;4.78;;;4.47;;
19645;SDS011;9971;52.446;13.452;2022-08-19T12:56:48;5.60;;;5.20;;
19645;SDS011;9971;52.446;13.452;2022-08-19T13:01:50;4.58;;;4.17;;
19645;SDS011;9971;52.446;13.452;2022-08-19T13:06:53;4.50;;;4.20;;
19645;SDS011;9971;52.446;13.452;2022-08-19T13:11:55;5.17;;;4.78;;
19645;SDS011;9971;52.446;13.452;2022-08-19T13:16:58;5.08;;;4.75;;
19645;SDS011;9971;52.446;13.452;2022-08-19T13:22:00;6.12;;;5.62;;
19645;SDS011;9971;52.446;13.452;2022-08-19T13:27:03;5.50;;;5.12;;
19645;SDS011;9971;52.446;13.452;2022-08-19T13:32:05;6.33;;;5.90;;
19645;SDS011;9971;52.446;13.452;2022-08-19T13:37:13;6.87;;;5.83;;
19645;SDS011;9971;52.446;13.452;2022-08-19T13:42:15;5.75;;;5.42;;
19645;SDS011;9971;52.446;13.452;2022-08-19T13:47:17;6.28;;;5.78;;
19645;SDS011;9971;52.446;13.452;2022-08-19T13:52:20;7.75;;;7.08;;
19645;SDS011;9971;52.446;13.452;2022-08-19T13:57:23;6.10;;;5.60;;
19645;SDS011;9971;52.446;13.452;2022-08-19T14:02:25;6.37;;;5.90;;
19645;SDS011;9971;52.446;13.452;2022-08-19T14:07:27;5.42;;;5.03;;
19645;SDS011;9971;52.446;13.452;2022-08-19T14:12:30;4.87;;;4.58;;
19645;SDS011;9971;52.446;13.452;2022-08-19T14:17:32;5.92;;;5.45;;
19645;SDS011;9971;52.446;13.452;2022-08-19T14:22:35;5.47;;;5.08;;
19645;SDS011;9971;52.446;13.452;2022-08-19T14:27:37;5.87;;;5.47;;
19645;SDS011;9971;52.446;13.452;2022-08-19T14:32:39;5.60;;;5.10;;
19645;SDS011;9971;52.446;13.452;2022-08-19T14:37:42;6.33;;;5.92;;
19645;SDS011;9971;52.446;13.452;2022-08-19T14:42:43;5.17;;;4.80;;
19645;SDS011;9971;52.446;13.452;2022-08-19T14:47:45;7.00;;;6.50;;
19645;SDS011;9971;52.446;13.452;2022-08-19T14:52:48;5.72;;;5.33;;
19645;SDS011;9971;52.446;13.452;2022-08-19T14:57:50;6.83;;;6.22;;
19645;SDS011;9971;52.446;13.452;2022-08-19T15:02:52;7.28;;;6.78;;
19645;SDS011;9971;52.446;13.452;2022-08-19T15:07:54;5.03;;;4.62;;
19645;SDS011;9971;52.446;13.452;2022-08-19T15:12:57;4.95;;;4.65;;
19645;SDS011;9971;52.446;13.452;2022-08-19T15:17:59;6.10;;;5.70;;
19645;SDS011;9971;52.446;13.452;2022-08-19T15:23:01;5.25;;;4.80;;
19645;SDS011;9971;52.446;13.452;2022-08-19T15:28:03;5.28;;;4.97;;
19645;SDS011;9971;52.446;13.452;2022-08-19T15:33:05;5.47;;;5.08;;
19645;SDS011;9971;52.446;13.452;2022-08-19T15:38:08;5.67;;;5.28;;
19645;SDS011;9971;52.446;13.452;2022-08-19T15:43:09;3.87;;;3.67;;
19645;SDS011;9971;52.446;13.452;2022-08-19T15:48:12;4.20;;;3.90;;
19645;SDS011;9971;52.446;13.452;2022-08-19T15:53:14;5.90;;;5.50;;
19645;SDS011;9971;52.446;13.452;2022-08-19T15:58:17;5.15;;;4.75;;
19645;SDS011;9971;52.446;13.452;2022-08-19T16:03:25;5.80;;;5.40;;
19645;SDS011;9971;52.446;13.452;2022-08-19T16:08:33;4.50;;;4.20;;
19645;SDS011;9971;52.446;13.452;2022-08-19T16:13:35;5.97;;;5.58;;
19645;SDS011;9971;52.446;13.452;2022-08-19T16:18:38;5.40;;;5.00;;
19645;SDS011;9971;52.446;13.452;2022-08-19T16:23:40;4.20;;;3.90;;
19645;SDS011;9971;52.446;13.452;2022-08-19T16:28:43;3.85;;;3.65;;
19645;SDS011;9971;52.446;13.452;2022-08-19T16:33:45;4.60;;;4.30;;
19645;SDS011;9971;52.446;13.452;2022-08-19T16:38:47;4.30;;;4.00;;
19645;SDS011;9971;52.446;13.452;2022-08-19T16:43:50;4.15;;;3.95;;
19645;SDS011;9971;52.446;13.452;2022-08-19T16:48:52;5.30;;;4.85;;
19645;SDS011;9971;52.446;13.452;2022-08-19T16:53:54;4.97;;;4.67;;
19645;SDS011;9971;52.446;13.452;2022-08-19T16:58:56;3.95;;;3.75;;
19645;SDS011;9971;52.446;13.452;2022-08-19T17:03:58;4.28;;;4.00;;
19645;SDS011;9971;52.446;13.452;2022-08-19T17:09:02;4.13;;;3.83;;
19645;SDS011;9971;52.446;13.452;2022-08-19T17:14:04;4.50;;;4.10;;
19645;SDS011;9971;52.446;13.452;2022-08-19T17:19:06;3.90;;;3.70;;
19645;SDS011;9971;52.446;13.452;2022-08-19T17:24:08;4.12;;;3.85;;
19645;SDS011;9971;52.446;13.452;2022-08-19T17:29:10;4.40;;;4.10;;
19645;SDS011;9971;52.446;13.452;2022-08-19T17:34:13;3.47;;;3.27;;
19645;SDS011;9971;52.446;13.452;2022-08-19T17:39:15;5.08;;;4.35;;
19645;SDS011;9971;52.446;13.452;2022-08-19T17:44:17;3.58;;;3.27;;
19645;SDS011;9971;52.446;13.452;2022-08-19T17:49:20;3.60;;;3.40;;
19645;SDS011;9971;52.446;13.452;2022-08-19T17:54:22;4.17;;;3.87;;
19645;SDS011;9971;52.446;13.452;2022-08-19T17:59:24;3.20;;;3.00;;
19645;SDS011;9971;52.446;13.452;2022-08-19T18:04:27;3.62;;;3.42;;
19645;SDS011;9971;52.446;13.452;2022-08-19T18:09:30;3.20;;;3.00;;
19645;SDS011;9971;52.446;13.452;2022-08-19T18:14:32;3.20;;;2.90;;
19645;SDS011;9971;52.446;13.452;2022-08-19T18:19:34;3.05;;;2.85;;
19645;SDS011;9971;52.446;13.452;2022-08-19T18:24:37;3.67;;;3.47;;
19645;SDS011;9971;52.446;13.452;2022-08-19T18:29:38;2.77;;;2.62;;
19645;SDS011;9971;52.446;13.452;2022-08-19T18:34:41;3.80;;;3.45;;
19645;SDS011;9971;52.446;13.452;2022-08-19T18:39:42;3.98;;;3.67;;
19645;SDS011;9971;52.446;13.452;2022-08-19T18:44:51;2.77;;;2.67;;
19645;SDS011;9971;52.446;13.452;2022-08-19T18:49:58;3.17;;;2.97;;
19645;SDS011;9971;52.446;13.452;2022-08-19T18:55:01;4.22;;;3.92;;
19645;SDS011;9971;52.446;13.452;2022-08-19T19:00:03;3.12;;;2.92;;
19645;SDS011;9971;52.446;13.452;2022-08-19T19:05:06;4.20;;;3.90;;
19645;SDS011;9971;52.446;13.452;2022-08-19T19:10:07;4.37;;;4.08;;
19645;SDS011;9971;52.446;13.452;2022-08-19T19:15:11;4.35;;;4.05;;
19645;SDS011;9971;52.446;13.452;2022-08-19T19:20:12;3.20;;;2.98;;
19645;SDS011;9971;52.446;13.452;2022-08-19T19:25:14;2.27;;;2.17;;
19645;SDS011;9971;52.446;13.452;2022-08-19T19:30:16;1.20;;;1.20;;
19645;SDS011;9971;52.446;13.452;2022-08-19T19:35:19;2.30;;;2.20;;
19645;SDS011;9971;52.446;13.452;2022-08-19T19:40:21;1.70;;;1.60;;
19645;SDS011;9971;52.446;13.452;2022-08-19T19:45:23;1.30;;;1.30;;
19645;SDS011;9971;52.446;13.452;2022-08-19T19:50:25;2.65;;;2.55;;
19645;SDS011;9971;52.446;13.452;2022-08-19T19:55:28;0.73;;;0.73;;
19645;SDS011;9971;52.446;13.452;2022-08-19T20:00:30;1.72;;;1.62;;
19645;SDS011;9971;52.446;13.452;2022-08-19T20:05:33;2.07;;;1.97;;
19645;SDS011;9971;52.446;13.452;2022-08-19T20:10:35;5.12;;;4.75;;
19645;SDS011;9971;52.446;13.452;2022-08-19T20:15:37;1.90;;;1.80;;
19645;SDS011;9971;52.446;13.452;2022-08-19T20:20:39;0.70;;;0.70;;
19645;SDS011;9971;52.446;13.452;2022-08-19T20:25:41;5.23;;;4.83;;
19645;SDS011;9971;52.446;13.452;2022-08-19T20:30:43;2.55;;;2.45;;
19645;SDS011;9971;52.446;13.452;2022-08-19T20:35:46;1.50;;;1.45;;
19645;SDS011;9971;52.446;13.452;2022-08-19T20:40:48;3.60;;;3.40;;
19645;SDS011;9971;52.446;13.452;2022-08-19T20:45:50;3.65;;;3.42;;
19645;SDS011;9971;52.446;13.452;2022-08-19T20:50:53;2.50;;;2.37;;
19645;SDS011;9971;52.446;13.452;2022-08-19T20:55:54;1.00;;;1.00;;
19645;SDS011;9971;52.446;13.452;2022-08-19T21:00:58;2.65;;;2.45;;
19645;SDS011;9971;52.446;13.452;2022-08-19T21:05:58;3.10;;;2.90;;
19645;SDS011;9971;52.446;13.452;2022-08-19T21:11:00;1.30;;;1.20;;
19645;SDS011;9971;52.446;13.452;2022-08-19T21:16:03;0.72;;;0.72;;
19645;SDS011;9971;52.446;13.452;2022-08-19T21:21:05;0.70;;;0.70;;
19645;SDS011;9971;52.446;13.452;2022-08-19T21:26:07;2.85;;;2.65;;
19645;SDS011;9971;52.446;13.452;2022-08-19T21:31:10;1.30;;;1.20;;
19645;SDS011;9971;52.446;13.452;2022-08-19T21:36:12;0.80;;;0.80;;
19645;SDS011;9971;52.446;13.452;2022-08-19T21:41:14;0.83;;;0.83;;
19645;SDS011;9971;52.446;13.452;2022-08-19T21:46:17;0.95;;;0.95;;
19645;SDS011;9971;52.446;13.452;2022-08-19T21:51:19;0.80;;;0.80;;
19645;SDS011;9971;52.446;13.452;2022-08-19T21:56:22;1.10;;;1.10;;
19645;SDS011;9971;52.446;13.452;2022-08-19T22:01:24;2.00;;;1.90;;
19645;SDS011;9971;52.446;13.452;2022-08-19T22:06:27;0.75;;;0.75;;
19645;SDS011;9971;52.446;13.452;2022-08-19T22:11:29;0.70;;;0.70;;
19645;SDS011;9971;52.446;13.452;2022-08-19T22:16:32;0.78;;;0.78;;
19645;SDS011;9971;52.446;13.452;2022-08-19T22:21:34;0.53;;;0.53;;
19645;SDS011;9971;52.446;13.452;2022-08-19T22:26:37;0.60;;;0.60;;
19645;SDS011;9971;52.446;13.452;2022-08-19T22:31:39;0.68;;;0.68;;
19645;SDS011;9971;52.446;13.452;2022-08-19T22:36:41;0.60;;;0.60;;
19645;SDS011;9971;52.446;13.452;2022-08-19T22:41:44;0.78;;;0.78;;
19645;SDS011;9971;52.446;13.452;2022-08-19T22:46:47;0.85;;;0.85;;
19645;SDS011;9971;52.446;13.452;2022-08-19T22:51:49;0.63;;;0.63;;
19645;SDS011;9971;52.446;13.452;2022-08-19T22:56:57;0.70;;;0.70;;
19645;SDS011;9971;52.446;13.452;2022-08-19T23:01:59;2.13;;;2.03;;
19645;SDS011;9971;52.446;13.452;2022-08-19T23:07:03;2.50;;;2.40;;
19645;SDS011;9971;52.446;13.452;2022-08-19T23:12:04;5.27;;;4.90;;
19645;SDS011;9971;52.446;13.452;2022-08-19T23:17:06;2.55;;;2.45;;
19645;SDS011;9971;52.446;13.452;2022-08-19T23:22:09;2.07;;;1.97;;
19645;SDS011;9971;52.446;13.452;2022-08-19T23:27:11;0.80;;;0.80;;
19645;SDS011;9971;52.446;13.452;2022-08-19T23:32:19;0.70;;;0.70;;
19645;SDS011;9971;52.446;13.452;2022-08-19T23:37:21;0.70;;;0.70;;
19645;SDS011;9971;52.446;13.452;2022-08-19T23:42:24;0.70;;;0.70;;
19645;SDS011;9971;52.446;13.452;2022-08-19T23:47:26;0.63;;;0.63;;
19645;SDS011;9971;52.446;13.452;2022-08-19T23:52:28;2.87;;;2.67;;
19645;SDS011;9971;52.446;13.452;2022-08-19T23:57:30;1.10;;;1.10;;
